createdAt,value
2023-01-02T00:00:09.245Z,22.30
2023-01-02T00:01:09.179Z,20.80
2023-01-02T00:02:09.180Z,21.50
2023-01-02T00:03:09.366Z,27.00
2023-01-02T00:04:09.158Z,19.40
2023-01-02T00:05:09.166Z,23.50
2023-01-02T00:06:09.141Z,20.60
2023-01-02T00:07:09.150Z,21.30
2023-01-02T00:08:09.127Z,25.20
2023-01-02T00:09:09.146Z,20.40
2023-01-02T00:10:09.122Z,21.70
2023-01-02T00:11:09.111Z,22.20
2023-01-02T00:12:09.081Z,20.70
2023-01-02T00:13:09.093Z,19.70
2023-01-02T00:14:09.104Z,19.40
2023-01-02T00:15:09.092Z,23.30
2023-01-02T00:16:09.111Z,22.50
2023-01-02T00:17:09.077Z,22.60
2023-01-02T00:18:09.075Z,21.50
2023-01-02T00:19:09.062Z,22.30
2023-01-02T00:20:09.049Z,22.50
2023-01-02T00:21:09.843Z,18.40
2023-01-02T00:22:09.029Z,17.50
2023-01-02T00:23:09.031Z,19.40
2023-01-02T00:24:09.028Z,17.20
2023-01-02T00:25:08.998Z,15.20
2023-01-02T00:26:09.003Z,14.90
2023-01-02T00:27:08.990Z,15.20
2023-01-02T00:28:08.969Z,16.80
2023-01-02T00:29:08.989Z,17.40
2023-01-02T00:30:08.953Z,13.70
2023-01-02T00:31:09.018Z,17.10
2023-01-02T00:32:08.953Z,24.70
2023-01-02T00:33:08.967Z,17.60
2023-01-02T00:34:08.924Z,16.90
2023-01-02T00:35:08.908Z,15.70
2023-01-02T00:36:08.922Z,14.30
2023-01-02T00:37:08.894Z,13.50
2023-01-02T00:38:08.893Z,14.20
2023-01-02T00:39:08.899Z,16.10
2023-01-02T00:40:08.937Z,11.60
2023-01-02T00:41:08.999Z,13.10
2023-01-02T00:42:08.871Z,13.10
2023-01-02T00:43:08.874Z,15.30
2023-01-02T00:44:08.855Z,13.80
2023-01-02T00:45:08.849Z,11.70
2023-01-02T00:46:11.881Z,11.50
2023-01-02T00:47:09.860Z,14.00
2023-01-02T00:48:09.171Z,9.90
2023-01-02T00:49:08.811Z,13.70
2023-01-02T00:50:08.822Z,14.00
2023-01-02T00:51:08.808Z,15.90
2023-01-02T00:52:08.805Z,13.20
2023-01-02T00:53:08.802Z,11.90
2023-01-02T00:54:08.803Z,11.30
2023-01-02T00:55:08.767Z,12.40
2023-01-02T00:56:08.769Z,10.70
2023-01-02T00:57:08.746Z,17.30
2023-01-02T00:58:08.770Z,13.80
2023-01-02T00:59:08.735Z,13.90
2023-01-02T01:00:08.782Z,12.40
2023-01-02T01:01:08.740Z,10.30
2023-01-02T01:02:08.791Z,9.30
2023-01-02T01:03:08.834Z,10.80
2023-01-02T01:04:08.721Z,10.60
2023-01-02T01:05:08.692Z,15.40
2023-01-02T01:06:08.678Z,12.90
2023-01-02T01:07:08.705Z,8.80
2023-01-02T01:08:08.665Z,13.50
2023-01-02T01:09:08.678Z,8.70
2023-01-02T01:10:08.666Z,16.00
2023-01-02T01:11:08.658Z,15.20
2023-01-02T01:12:08.686Z,9.10
2023-01-02T01:13:08.655Z,12.00
2023-01-02T01:14:08.636Z,9.10
2023-01-02T01:15:08.636Z,10.20
2023-01-02T01:16:08.682Z,14.10
2023-01-02T01:17:08.606Z,16.50
2023-01-02T01:18:08.618Z,15.90
2023-01-02T01:19:08.580Z,16.50
2023-01-02T01:20:08.566Z,15.70
2023-01-02T01:21:08.572Z,14.30
2023-01-02T01:22:08.575Z,19.90
2023-01-02T01:23:08.583Z,26.10
2023-01-02T01:24:08.548Z,18.60
2023-01-02T01:25:08.565Z,16.90
2023-01-02T01:26:08.528Z,14.70
2023-01-02T01:27:08.540Z,16.40
2023-01-02T01:28:08.560Z,14.10
2023-01-02T01:29:08.527Z,21.90
2023-01-02T01:30:08.512Z,14.80
2023-01-02T01:31:08.548Z,15.90
2023-01-02T01:32:08.485Z,16.80
2023-01-02T01:33:08.504Z,16.10
2023-01-02T01:34:08.459Z,11.40
2023-01-02T01:35:08.475Z,10.80
2023-01-02T01:36:08.540Z,10.90
2023-01-02T01:37:08.447Z,8.60
2023-01-02T01:38:08.451Z,8.40
2023-01-02T01:39:08.424Z,8.30
2023-01-02T01:40:08.471Z,11.50
2023-01-02T01:41:08.426Z,8.20
2023-01-02T01:42:08.397Z,5.80
2023-01-02T01:43:08.438Z,10.30
2023-01-02T01:44:08.420Z,9.50
2023-01-02T01:45:08.398Z,8.40
2023-01-02T01:46:08.400Z,9.50
2023-01-02T01:47:08.400Z,10.10
2023-01-02T01:48:08.360Z,6.20
2023-01-02T01:49:08.363Z,8.90
2023-01-02T01:50:08.419Z,4.90
2023-01-02T01:51:08.341Z,9.20
2023-01-02T01:52:08.409Z,8.40
2023-01-02T01:53:08.353Z,13.60
2023-01-02T01:54:08.309Z,7.70
2023-01-02T01:55:08.331Z,12.50
2023-01-02T01:56:08.314Z,6.10
2023-01-02T01:57:08.297Z,9.40
2023-01-02T01:58:08.295Z,7.90
2023-01-02T01:59:08.276Z,6.90
2023-01-02T02:00:08.256Z,11.60
2023-01-02T02:01:09.295Z,10.40
2023-01-02T02:02:08.483Z,9.20
2023-01-02T02:03:08.338Z,5.20
2023-01-02T02:04:08.236Z,9.90
2023-01-02T02:05:08.215Z,11.50
2023-01-02T02:06:08.254Z,10.20
2023-01-02T02:07:08.202Z,10.30
2023-01-02T02:08:08.233Z,7.90
2023-01-02T02:09:08.200Z,9.30
2023-01-02T02:10:08.202Z,9.90
2023-01-02T02:11:08.187Z,10.80
2023-01-02T02:12:08.160Z,7.70
2023-01-02T02:13:08.213Z,10.10
2023-01-02T02:14:08.151Z,17.70
2023-01-02T02:15:40.095Z,16.20
2023-01-02T02:16:08.253Z,16.80
2023-01-02T02:17:08.172Z,11.30
2023-01-02T02:18:08.175Z,9.90
2023-01-02T02:19:08.142Z,9.40
2023-01-02T02:20:08.126Z,9.40
2023-01-02T02:21:08.137Z,10.90
2023-01-02T02:22:08.193Z,9.00
2023-01-02T02:23:08.091Z,9.10
2023-01-02T02:24:40.095Z,7.90
2023-01-02T02:25:08.088Z,7.30
2023-01-02T02:26:08.082Z,10.70
2023-01-02T02:27:08.075Z,9.30
2023-01-02T02:28:08.075Z,6.60
2023-01-02T02:29:08.061Z,8.20
2023-01-02T02:30:08.082Z,8.80
2023-01-02T02:31:08.050Z,8.60
2023-01-02T02:32:08.047Z,8.80
2023-01-02T02:33:08.032Z,7.60
2023-01-02T02:34:08.017Z,7.50
2023-01-02T02:35:08.020Z,7.80
2023-01-02T02:36:08.004Z,11.10
2023-01-02T02:37:07.988Z,8.00
2023-01-02T02:38:07.985Z,9.70
2023-01-02T02:39:08.035Z,7.70
2023-01-02T02:40:08.003Z,8.50
2023-01-02T02:41:07.973Z,7.30
2023-01-02T02:42:07.943Z,7.10
2023-01-02T02:43:07.948Z,7.30
2023-01-02T02:44:07.945Z,10.30
2023-01-02T02:45:07.969Z,5.80
2023-01-02T02:46:07.994Z,7.70
2023-01-02T02:47:07.915Z,10.00
2023-01-02T02:48:07.940Z,9.30
2023-01-02T02:49:07.916Z,10.90
2023-01-02T02:50:07.883Z,8.20
2023-01-02T02:51:07.907Z,8.10
2023-01-02T02:52:07.875Z,10.00
2023-01-02T02:53:07.892Z,6.00
2023-01-02T02:54:07.860Z,5.80
2023-01-02T02:55:07.853Z,8.70
2023-01-02T02:56:07.875Z,7.50
2023-01-02T02:57:07.857Z,7.30
2023-01-02T02:58:07.860Z,5.60
2023-01-02T02:59:07.862Z,6.60
2023-01-02T03:00:07.828Z,7.70
2023-01-02T03:01:07.930Z,8.20
2023-01-02T03:02:07.968Z,7.30
2023-01-02T03:03:07.937Z,6.10
2023-01-02T03:04:08.042Z,9.40
2023-01-02T03:05:07.762Z,9.00
2023-01-02T03:06:07.779Z,8.40
2023-01-02T03:07:07.777Z,7.80
2023-01-02T03:08:07.781Z,7.90
2023-01-02T03:09:07.745Z,10.00
2023-01-02T03:10:07.762Z,5.40
2023-01-02T03:11:07.789Z,10.40
2023-01-02T03:12:07.815Z,5.40
2023-01-02T03:13:08.415Z,9.40
2023-01-02T03:14:07.703Z,7.30
2023-01-02T03:15:07.709Z,7.20
2023-01-02T03:16:07.726Z,8.20
2023-01-02T03:17:07.699Z,9.40
2023-01-02T03:18:07.679Z,10.80
2023-01-02T03:19:07.754Z,9.40
2023-01-02T03:20:07.690Z,8.80
2023-01-02T03:21:07.724Z,8.70
2023-01-02T03:22:07.687Z,13.10
2023-01-02T03:23:07.660Z,8.30
2023-01-02T03:24:07.653Z,10.50
2023-01-02T03:25:08.337Z,10.20
2023-01-02T03:26:07.627Z,8.90
2023-01-02T03:27:07.632Z,6.90
2023-01-02T03:28:07.658Z,11.00
2023-01-02T03:29:07.600Z,6.70
2023-01-02T03:30:07.599Z,7.10
2023-01-02T03:31:07.629Z,8.30
2023-01-02T03:32:07.572Z,9.50
2023-01-02T03:33:08.485Z,11.20
2023-01-02T03:34:07.571Z,8.40
2023-01-02T03:35:07.563Z,9.30
2023-01-02T03:36:07.557Z,8.20
2023-01-02T03:37:07.517Z,8.20
2023-01-02T03:38:07.550Z,9.80
2023-01-02T03:39:07.512Z,7.70
2023-01-02T03:40:07.533Z,7.50
2023-01-02T03:41:07.529Z,7.10
2023-01-02T03:42:07.497Z,11.40
2023-01-02T03:43:08.470Z,9.80
2023-01-02T03:44:07.487Z,8.60
2023-01-02T03:45:07.530Z,13.70
2023-01-02T03:46:07.521Z,13.80
2023-01-02T04:02:28.921Z,7.60
2023-01-02T04:03:28.614Z,8.10
2023-01-02T04:04:30.663Z,9.50
2023-01-02T04:05:29.716Z,9.60
2023-01-02T04:06:29.740Z,8.50
2023-01-02T04:07:29.707Z,11.00
2023-01-02T04:08:29.681Z,8.70
2023-01-02T04:09:29.688Z,10.30
2023-01-02T04:10:29.711Z,7.70
2023-01-02T04:11:29.882Z,9.30
2023-01-02T04:12:29.668Z,7.80
2023-01-02T04:13:29.716Z,8.90
2023-01-02T04:14:29.643Z,7.60
2023-01-02T04:15:29.679Z,11.30
2023-01-02T04:16:29.646Z,6.20
2023-01-02T04:17:29.627Z,8.80
2023-01-02T04:18:29.608Z,11.10
2023-01-02T04:19:29.621Z,7.80
2023-01-02T04:20:30.296Z,10.60
2023-01-02T04:21:29.596Z,6.50
2023-01-02T04:22:29.600Z,8.50
2023-01-02T04:23:29.574Z,6.10
2023-01-02T04:24:29.608Z,11.10
2023-01-02T04:25:29.561Z,7.50
2023-01-02T04:26:30.554Z,7.20
2023-01-02T04:27:29.614Z,9.00
2023-01-02T04:28:29.535Z,6.10
2023-01-02T04:29:29.528Z,6.70
2023-01-02T04:30:29.514Z,9.60
2023-01-02T04:31:29.568Z,9.40
2023-01-02T04:32:29.517Z,7.00
2023-01-02T04:33:30.514Z,9.30
2023-01-02T04:34:29.575Z,7.40
2023-01-02T04:35:30.325Z,7.90
2023-01-02T04:36:29.476Z,8.80
2023-01-02T04:37:29.456Z,7.80
2023-01-02T04:38:29.461Z,7.60
2023-01-02T04:39:29.480Z,8.40
2023-01-02T04:40:30.335Z,7.50
2023-01-02T04:41:29.494Z,8.10
2023-01-02T04:42:29.435Z,6.50
2023-01-02T04:43:29.410Z,5.90
2023-01-02T04:44:29.422Z,7.70
2023-01-02T04:45:29.392Z,8.80
2023-01-02T04:46:30.507Z,8.80
2023-01-02T04:47:29.372Z,11.50
2023-01-02T04:48:29.373Z,12.00
2023-01-02T04:49:29.417Z,10.60
2023-01-02T04:50:29.387Z,10.20
2023-01-02T04:51:29.357Z,11.50
2023-01-02T04:52:35.065Z,8.00
2023-01-02T04:53:31.337Z,13.20
2023-01-02T04:54:29.311Z,8.70
2023-01-02T04:55:29.324Z,9.00
2023-01-02T04:56:29.347Z,8.90
2023-01-02T04:57:29.318Z,9.20
2023-01-02T04:58:29.324Z,8.60
2023-01-02T04:59:29.312Z,9.90
2023-01-02T05:00:29.304Z,12.40
2023-01-02T05:01:29.387Z,9.40
2023-01-02T05:02:29.369Z,10.70
2023-01-02T05:03:29.274Z,7.20
2023-01-02T05:04:29.272Z,9.40
2023-01-02T05:05:29.241Z,11.50
2023-01-02T05:06:29.277Z,10.50
2023-01-02T05:07:29.221Z,8.40
2023-01-02T05:08:29.233Z,9.40
2023-01-02T05:09:29.195Z,7.00
2023-01-02T05:10:29.273Z,9.30
2023-01-02T05:11:29.200Z,8.40
2023-01-02T05:12:29.214Z,7.70
2023-01-02T05:13:29.185Z,8.90
2023-01-02T05:14:29.169Z,7.50
2023-01-02T05:15:29.149Z,8.20
2023-01-02T05:16:29.201Z,12.80
2023-01-02T05:17:29.131Z,7.30
2023-01-02T05:18:29.220Z,9.10
2023-01-02T05:19:29.123Z,9.70
2023-01-02T05:20:29.256Z,9.80
2023-01-02T05:21:29.122Z,7.50
2023-01-02T05:22:29.152Z,9.40
2023-01-02T05:23:29.116Z,10.60
2023-01-02T05:24:29.084Z,8.40
2023-01-02T05:25:29.058Z,8.90
2023-01-02T05:26:29.091Z,13.00
2023-01-02T05:27:29.041Z,8.90
2023-01-02T05:28:32.505Z,8.70
2023-01-02T05:29:30.058Z,9.70
2023-01-02T05:30:29.032Z,12.60
2023-01-02T05:31:29.218Z,9.20
2023-01-02T05:32:29.027Z,7.70
2023-01-02T05:33:29.017Z,6.80
2023-01-02T05:34:29.003Z,8.00
2023-01-02T05:35:33.026Z,8.80
2023-01-02T05:36:29.989Z,7.40
2023-01-02T05:37:28.963Z,8.40
2023-01-02T05:38:28.985Z,11.70
2023-01-02T05:39:28.958Z,10.70
2023-01-02T05:40:29.795Z,9.10
2023-01-02T05:41:28.948Z,9.30
2023-01-02T05:42:28.946Z,10.80
2023-01-02T05:43:28.946Z,10.60
2023-01-02T05:44:28.941Z,8.90
2023-01-02T05:45:28.927Z,10.50
2023-01-02T05:46:28.996Z,8.70
2023-01-02T05:48:00.836Z,9.20
2023-01-02T05:48:28.923Z,8.60
2023-01-02T05:49:28.918Z,9.10
2023-01-02T05:50:28.874Z,9.30
2023-01-02T05:51:28.901Z,7.70
2023-01-02T05:52:28.874Z,11.40
2023-01-02T05:53:28.858Z,12.20
2023-01-02T05:54:28.948Z,9.10
2023-01-02T05:55:28.846Z,10.10
2023-01-02T05:56:28.850Z,9.60
2023-01-02T05:57:28.835Z,7.50
2023-01-02T05:58:28.810Z,9.90
2023-01-02T05:59:28.826Z,12.70
2023-01-02T06:00:28.793Z,9.00
2023-01-02T06:01:28.814Z,10.00
2023-01-02T06:02:28.949Z,10.90
2023-01-02T06:03:28.887Z,8.90
2023-01-02T06:04:28.755Z,10.40
2023-01-02T06:05:28.793Z,10.40
2023-01-02T06:06:28.751Z,8.20
2023-01-02T06:07:28.741Z,10.20
2023-01-02T06:08:28.746Z,11.50
2023-01-02T06:09:28.734Z,9.80
2023-01-02T06:10:28.753Z,9.00
2023-01-02T06:11:28.712Z,9.40
2023-01-02T06:12:28.743Z,7.20
2023-01-02T06:13:28.716Z,12.90
2023-01-02T06:14:28.711Z,11.90
2023-01-02T06:15:28.690Z,9.20
2023-01-02T06:17:00.600Z,9.80
2023-01-02T06:17:28.678Z,11.60
2023-01-02T06:18:28.683Z,16.20
2023-01-02T06:19:28.690Z,9.30
2023-01-02T06:20:28.677Z,7.60
2023-01-02T06:21:28.638Z,11.90
2023-01-02T06:22:28.661Z,12.50
2023-01-02T06:23:28.618Z,11.20
2023-01-02T06:24:28.623Z,8.00
2023-01-02T06:25:28.619Z,8.70
2023-01-02T06:26:34.329Z,8.70
2023-01-02T06:27:55.503Z,10.10
2023-01-02T06:28:28.603Z,10.10
2023-01-02T06:29:28.602Z,7.00
2023-01-02T06:30:28.565Z,6.00
2023-01-02T06:31:28.594Z,11.60
2023-01-02T06:32:28.605Z,8.00
2023-01-02T06:33:28.553Z,10.00
2023-01-02T06:34:28.553Z,11.70
2023-01-02T06:35:28.523Z,9.70
2023-01-02T06:36:28.519Z,10.70
2023-01-02T06:37:28.542Z,8.30
2023-01-02T06:38:28.534Z,7.10
2023-01-02T06:39:28.520Z,8.50
2023-01-02T06:40:28.491Z,11.20
2023-01-02T06:41:28.495Z,12.40
2023-01-02T06:42:29.478Z,9.40
2023-01-02T06:43:28.461Z,9.70
2023-01-02T06:44:28.447Z,8.70
2023-01-02T06:45:28.473Z,11.70
2023-01-02T06:46:28.464Z,13.10
2023-01-02T06:47:28.465Z,9.80
2023-01-02T06:48:28.432Z,12.40
2023-01-02T06:49:28.423Z,10.60
2023-01-02T06:50:34.685Z,9.00
2023-01-02T06:51:30.401Z,12.50
2023-01-02T06:52:28.416Z,13.50
2023-01-02T06:53:28.409Z,9.10
2023-01-02T06:54:28.390Z,10.00
2023-01-02T06:55:28.355Z,11.80
2023-01-02T06:57:00.300Z,10.50
2023-01-02T06:57:28.364Z,14.00
2023-01-02T06:58:28.431Z,9.30
2023-01-02T06:59:28.340Z,11.00
2023-01-02T07:00:28.333Z,10.80
2023-01-02T07:01:28.406Z,10.50
2023-01-02T07:02:28.365Z,14.20
2023-01-02T07:03:28.301Z,9.60
2023-01-02T07:04:29.325Z,8.90
2023-01-02T07:05:28.328Z,12.10
2023-01-02T07:06:28.295Z,10.00
2023-01-02T07:07:28.312Z,8.30
2023-01-02T07:08:28.273Z,12.80
2023-01-02T07:09:28.262Z,9.10
2023-01-02T07:10:28.286Z,9.30
2023-01-02T07:11:28.266Z,9.60
2023-01-02T07:12:28.253Z,10.30
2023-01-02T07:13:28.234Z,10.40
2023-01-02T07:14:28.256Z,6.80
2023-01-02T07:15:28.217Z,6.20
2023-01-02T07:16:28.229Z,10.80
2023-01-02T07:17:28.214Z,10.50
2023-01-02T07:18:28.226Z,13.80
2023-01-02T07:19:28.201Z,8.70
2023-01-02T07:20:28.171Z,11.90
2023-01-02T07:21:28.160Z,9.00
2023-01-02T07:22:28.159Z,11.10
2023-01-02T07:23:28.148Z,15.90
2023-01-02T07:24:28.159Z,8.90
2023-01-02T07:25:28.147Z,13.60
2023-01-02T07:26:28.117Z,10.70
2023-01-02T07:27:28.133Z,12.70
2023-01-02T07:28:28.136Z,11.30
2023-01-02T07:29:28.131Z,12.10
2023-01-02T07:30:28.113Z,15.70
2023-01-02T07:31:28.162Z,12.10
2023-01-02T07:32:28.094Z,15.90
2023-01-02T07:33:28.076Z,15.40
2023-01-02T07:34:28.070Z,13.10
2023-01-02T07:35:28.133Z,10.50
2023-01-02T07:36:28.045Z,9.80
2023-01-02T07:37:28.043Z,11.60
2023-01-02T07:38:28.024Z,9.40
2023-01-02T07:39:28.018Z,14.90
2023-01-02T07:40:32.110Z,12.20
2023-01-02T07:41:29.035Z,11.70
2023-01-02T07:42:27.989Z,16.20
2023-01-02T07:43:27.993Z,12.00
2023-01-02T07:44:27.987Z,9.70
2023-01-02T07:45:28.075Z,11.90
2023-01-02T07:46:28.211Z,8.60
2023-01-02T07:47:27.950Z,14.30
2023-01-02T07:48:28.520Z,13.00
2023-01-02T07:49:27.960Z,10.80
2023-01-02T07:50:27.956Z,11.10
2023-01-02T07:51:28.931Z,10.20
2023-01-02T07:52:27.918Z,10.70
2023-01-02T07:53:27.898Z,9.30
2023-01-02T07:54:27.916Z,12.30
2023-01-02T07:55:27.919Z,9.50
2023-01-02T07:56:27.899Z,10.50
2023-01-02T07:57:27.870Z,10.80
2023-01-02T07:58:27.865Z,14.60
2023-01-02T07:59:27.892Z,13.70
2023-01-02T08:00:27.954Z,10.20
2023-01-02T08:01:27.960Z,9.20
2023-01-02T08:02:27.968Z,14.80
2023-01-02T08:03:27.860Z,13.50
2023-01-02T08:04:27.876Z,8.60
2023-01-02T08:05:27.853Z,14.90
2023-01-02T08:06:27.805Z,14.90
2023-01-02T08:07:27.808Z,16.40
2023-01-02T08:08:27.805Z,8.00
2023-01-02T08:09:27.794Z,13.10
2023-01-02T08:10:27.826Z,8.90
2023-01-02T08:11:27.786Z,8.90
2023-01-02T08:12:27.786Z,10.70
2023-01-02T08:13:27.772Z,12.60
2023-01-02T08:14:27.750Z,16.00
2023-01-02T08:15:59.672Z,17.00
2023-01-02T08:16:27.774Z,13.70
2023-01-02T08:17:27.732Z,16.50
2023-01-02T08:18:30.144Z,14.80
2023-01-02T08:19:27.734Z,13.40
2023-01-02T08:20:27.728Z,11.50
2023-01-02T08:21:27.724Z,12.20
2023-01-02T08:22:27.702Z,13.90
2023-01-02T08:23:27.684Z,11.90
2023-01-02T08:24:27.664Z,17.30
2023-01-02T08:25:27.648Z,13.30
2023-01-02T08:26:27.667Z,14.20
2023-01-02T08:27:27.676Z,15.90
2023-01-02T08:28:27.630Z,11.90
2023-01-02T08:29:27.753Z,15.50
2023-01-02T08:30:27.620Z,13.10
2023-01-02T08:31:27.697Z,8.60
2023-01-02T08:32:27.603Z,15.10
2023-01-02T08:33:27.604Z,8.50
2023-01-02T08:34:27.601Z,15.00
2023-01-02T08:35:38.113Z,11.80
2023-01-02T08:36:29.579Z,10.50
2023-01-02T08:37:27.595Z,16.40
2023-01-02T08:38:28.523Z,9.00
2023-01-02T08:39:27.564Z,9.10
2023-01-02T08:40:28.525Z,13.50
2023-01-02T08:41:27.565Z,11.40
2023-01-02T08:42:28.086Z,15.50
2023-01-02T08:43:27.531Z,12.60
2023-01-02T08:44:28.067Z,10.00
2023-01-02T08:45:27.499Z,11.70
2023-01-02T08:46:27.561Z,14.70
2023-01-02T08:47:27.523Z,9.50
2023-01-02T08:48:27.478Z,16.20
2023-01-02T08:49:27.475Z,12.20
2023-01-02T08:50:27.458Z,11.40
2023-01-02T08:51:27.493Z,11.80
2023-01-02T08:52:27.488Z,14.30
2023-01-02T08:53:27.496Z,13.50
2023-01-02T08:54:27.514Z,8.30
2023-01-02T08:55:27.417Z,11.60
2023-01-02T08:56:27.421Z,12.30
2023-01-02T08:57:27.399Z,13.50
2023-01-02T08:58:28.046Z,16.90
2023-01-02T08:59:28.393Z,16.10
2023-01-02T09:00:27.376Z,14.90
2023-01-02T09:01:28.121Z,14.90
2023-01-02T09:02:27.513Z,15.20
2023-01-02T09:03:27.429Z,17.80
2023-01-02T09:04:27.368Z,18.00
2023-01-02T09:05:27.349Z,13.30
2023-01-02T09:06:27.444Z,14.40
2023-01-02T09:07:27.360Z,16.10
2023-01-02T09:08:27.334Z,13.10
2023-01-02T09:09:27.328Z,5.80
2023-01-02T09:10:27.297Z,13.60
2023-01-02T09:11:27.313Z,8.00
2023-01-02T09:12:27.323Z,16.70
2023-01-02T09:13:27.301Z,11.60
2023-01-02T09:14:27.303Z,14.20
2023-01-02T09:15:27.382Z,11.80
2023-01-02T09:16:27.273Z,15.10
2023-01-02T09:17:27.245Z,14.80
2023-01-02T09:18:29.503Z,15.10
2023-01-02T09:19:28.283Z,17.90
2023-01-02T09:20:27.224Z,11.50
2023-01-02T09:21:27.234Z,14.90
2023-01-02T09:22:27.223Z,11.90
2023-01-02T09:23:27.203Z,12.10
2023-01-02T09:24:27.219Z,13.10
2023-01-02T09:25:27.179Z,12.40
2023-01-02T09:26:27.198Z,15.00
2023-01-02T09:27:28.191Z,14.30
2023-01-02T09:28:27.162Z,14.40
2023-01-02T09:29:27.203Z,14.90
2023-01-02T09:30:27.152Z,14.30
2023-01-02T09:31:27.209Z,12.70
2023-01-02T09:32:27.172Z,15.70
2023-01-02T09:33:27.152Z,13.20
2023-01-02T09:34:27.170Z,13.80
2023-01-02T09:35:27.114Z,12.00
2023-01-02T09:36:27.101Z,12.60
2023-01-02T09:37:27.087Z,16.80
2023-01-02T09:38:27.078Z,12.10
2023-01-02T09:39:32.152Z,9.70
2023-01-02T09:40:29.089Z,11.60
2023-01-02T09:41:27.114Z,15.60
2023-01-02T09:42:27.077Z,9.20
2023-01-02T09:43:27.109Z,11.40
2023-01-02T09:44:27.089Z,10.40
2023-01-02T09:45:27.129Z,6.80
2023-01-02T09:46:27.071Z,10.80
2023-01-02T09:47:27.037Z,8.40
2023-01-02T09:48:27.018Z,11.40
2023-01-02T09:49:27.008Z,12.60
2023-01-02T09:50:27.029Z,11.90
2023-01-02T09:51:26.993Z,13.90
2023-01-02T09:52:27.026Z,12.60
2023-01-02T09:53:26.962Z,10.90
2023-01-02T09:54:27.053Z,11.60
2023-01-02T09:55:26.968Z,13.20
2023-01-02T09:56:31.940Z,12.70
2023-01-02T09:57:28.928Z,15.00
2023-01-02T09:58:26.952Z,13.90
2023-01-02T09:59:26.920Z,11.30
2023-01-02T10:00:26.939Z,14.60
2023-01-02T10:01:58.828Z,10.80
2023-01-02T10:02:26.964Z,14.10
2023-01-02T10:03:27.010Z,10.70
2023-01-02T10:04:58.800Z,12.90
2023-01-02T10:05:26.897Z,16.40
2023-01-02T10:06:26.871Z,13.30
2023-01-02T10:07:26.863Z,11.70
2023-01-02T10:08:31.870Z,12.90
2023-01-02T10:09:53.785Z,13.10
2023-01-02T10:10:26.919Z,13.90
2023-01-02T10:11:27.468Z,15.10
2023-01-02T10:12:26.854Z,13.20
2023-01-02T10:13:44.211Z,11.80
2023-01-02T10:14:35.025Z,12.10
2023-01-02T10:15:28.775Z,13.50
2023-01-02T10:16:27.826Z,16.70
2023-01-02T10:17:26.835Z,11.80
2023-01-02T10:18:26.811Z,12.10
2023-01-02T10:19:26.834Z,15.00
2023-01-02T10:20:26.792Z,13.60
2023-01-02T10:21:26.759Z,22.10
2023-01-02T10:22:26.743Z,11.70
2023-01-02T10:23:26.726Z,16.20
2023-01-02T10:24:27.472Z,10.50
2023-01-02T10:25:26.909Z,13.80
2023-01-02T10:26:26.697Z,11.30
2023-01-02T10:27:26.771Z,13.90
2023-01-02T10:28:26.695Z,12.40
2023-01-02T10:29:26.688Z,14.50
2023-01-02T10:30:26.687Z,13.00
2023-01-02T10:31:26.725Z,14.70
2023-01-02T10:32:26.738Z,14.10
2023-01-02T10:33:26.648Z,17.30
2023-01-02T10:34:26.644Z,17.30
2023-01-02T10:35:26.653Z,16.00
2023-01-02T10:36:26.664Z,10.50
2023-01-02T10:37:26.702Z,13.00
2023-01-02T10:38:26.661Z,16.90
2023-01-02T10:39:26.607Z,14.70
2023-01-02T10:40:26.627Z,12.00
2023-01-02T10:41:26.609Z,12.20
2023-01-02T10:42:26.552Z,13.70
2023-01-02T10:43:26.590Z,13.70
2023-01-02T10:44:26.569Z,12.00
2023-01-02T10:45:26.580Z,9.70
2023-01-02T10:46:26.592Z,15.40
2023-01-02T10:47:26.561Z,12.80
2023-01-02T10:48:26.559Z,12.10
2023-01-02T10:49:26.563Z,10.40
2023-01-02T10:50:26.560Z,13.40
2023-01-02T10:51:26.541Z,19.70
2023-01-02T10:52:27.187Z,17.00
2023-01-02T10:53:27.057Z,12.90
2023-01-02T10:54:26.505Z,12.90
2023-01-02T10:55:26.492Z,15.00
2023-01-02T10:56:27.483Z,15.10
2023-01-02T10:57:26.473Z,7.20
2023-01-02T10:58:26.565Z,12.00
2023-01-02T10:59:26.448Z,15.10
2023-01-02T11:00:28.360Z,11.90
2023-01-02T11:01:27.582Z,13.90
2023-01-02T11:02:26.494Z,13.20
2023-01-02T11:03:26.416Z,15.80
2023-01-02T11:04:26.457Z,9.70
2023-01-02T11:05:26.430Z,21.10
2023-01-02T11:06:28.203Z,11.70
2023-01-02T11:07:27.400Z,16.50
2023-01-02T11:08:26.388Z,14.70
2023-01-02T11:09:26.385Z,13.60
2023-01-02T11:10:26.375Z,12.10
2023-01-02T11:11:27.147Z,13.60
2023-01-02T11:12:27.760Z,13.10
2023-01-02T11:13:27.652Z,12.70
2023-01-02T11:14:26.334Z,10.20
2023-01-02T11:15:26.335Z,18.30
2023-01-02T11:16:26.342Z,11.50
2023-01-02T11:17:26.329Z,13.20
2023-01-02T11:18:26.307Z,9.90
2023-01-02T11:19:29.820Z,13.00
2023-01-02T11:20:27.281Z,12.80
2023-01-02T11:21:26.276Z,12.70
2023-01-02T11:22:26.294Z,12.40
2023-01-02T11:23:26.256Z,13.30
2023-01-02T11:24:26.325Z,15.10
2023-01-02T11:25:26.258Z,14.30
2023-01-02T11:26:26.235Z,16.30
2023-01-02T11:27:26.222Z,14.30
2023-01-02T11:28:26.220Z,16.30
2023-01-02T11:29:26.361Z,16.20
2023-01-02T11:30:26.270Z,13.70
2023-01-02T11:31:26.352Z,12.60
2023-01-02T11:32:26.302Z,19.20
2023-01-02T11:33:26.197Z,12.50
2023-01-02T11:34:26.171Z,18.10
2023-01-02T11:35:26.181Z,18.30
2023-01-02T11:36:26.165Z,16.00
2023-01-02T11:37:26.187Z,18.60
2023-01-02T11:38:29.827Z,15.70
2023-01-02T11:39:26.159Z,15.80
2023-01-02T11:40:27.131Z,19.30
2023-01-02T11:41:26.129Z,16.20
2023-01-02T11:42:26.129Z,18.40
2023-01-02T11:43:26.149Z,13.50
2023-01-02T11:44:26.116Z,18.10
2023-01-02T11:45:26.214Z,13.40
2023-01-02T11:46:26.090Z,19.40
2023-01-02T11:47:26.063Z,18.30
2023-01-02T11:48:26.086Z,20.40
2023-01-02T11:49:26.115Z,18.50
2023-01-02T11:50:26.092Z,12.80
2023-01-02T11:51:26.064Z,11.10
2023-01-02T11:52:26.118Z,18.30
2023-01-02T11:53:26.025Z,14.90
2023-01-02T11:54:26.045Z,16.40
2023-01-02T11:55:26.012Z,11.00
2023-01-02T11:56:26.051Z,16.00
2023-01-02T11:57:25.984Z,12.10
2023-01-02T11:58:27.003Z,14.40
2023-01-02T11:59:25.989Z,14.40
2023-01-02T12:00:25.962Z,14.60
2023-01-02T12:01:26.553Z,19.70
2023-01-02T12:02:26.032Z,15.20
2023-01-02T12:03:26.039Z,15.80
2023-01-02T12:04:25.993Z,15.60
2023-01-02T12:05:25.967Z,15.30
2023-01-02T12:06:25.936Z,15.70
2023-01-02T12:07:25.932Z,13.60
2023-01-02T12:08:25.935Z,17.80
2023-01-02T12:09:25.948Z,16.20
2023-01-02T12:10:26.649Z,14.60
2023-01-02T12:11:25.916Z,16.30
2023-01-02T12:12:25.885Z,17.40
2023-01-02T12:13:25.876Z,16.00
2023-01-02T12:14:25.926Z,13.50
2023-01-02T12:15:25.911Z,17.00
2023-01-02T12:16:25.957Z,16.00
2023-01-02T12:17:25.858Z,11.30
2023-01-02T12:18:25.854Z,17.20
2023-01-02T12:19:25.866Z,16.00
2023-01-02T12:20:25.839Z,12.10
2023-01-02T12:21:25.815Z,15.50
2023-01-02T12:22:25.890Z,15.70
2023-01-02T12:23:25.872Z,11.90
2023-01-02T12:24:25.793Z,16.30
2023-01-02T12:25:26.784Z,15.80
2023-01-02T12:26:25.815Z,15.70
2023-01-02T12:27:25.780Z,14.30
2023-01-02T12:28:25.778Z,15.50
2023-01-02T12:29:46.213Z,13.80
2023-01-02T12:30:28.632Z,13.50
2023-01-02T12:31:25.804Z,18.20
2023-01-02T12:32:25.798Z,18.80
2023-01-02T12:33:25.739Z,13.20
2023-01-02T12:34:25.743Z,15.70
2023-01-02T12:35:25.737Z,16.60
2023-01-02T12:36:25.754Z,14.80
2023-01-02T12:37:25.710Z,17.20
2023-01-02T12:38:30.106Z,12.80
2023-01-02T12:39:27.695Z,12.00
2023-01-02T12:40:25.786Z,14.70
2023-01-02T12:41:25.652Z,12.00
2023-01-02T12:42:25.662Z,11.50
2023-01-02T12:43:25.675Z,15.20
2023-01-02T12:44:31.494Z,15.60
2023-01-02T12:45:27.651Z,13.90
2023-01-02T12:46:25.606Z,14.80
2023-01-02T12:47:25.626Z,13.80
2023-01-02T12:48:25.614Z,16.00
2023-01-02T12:49:25.735Z,19.60
2023-01-02T12:50:25.591Z,15.50
2023-01-02T12:51:25.604Z,21.50
2023-01-02T12:52:25.600Z,11.20
2023-01-02T12:53:25.658Z,16.30
2023-01-02T12:54:25.588Z,18.80
2023-01-02T12:55:25.657Z,13.40
2023-01-02T12:56:25.552Z,16.60
2023-01-02T12:57:25.554Z,16.40
2023-01-02T12:58:25.601Z,14.20
2023-01-02T12:59:25.528Z,15.60
2023-01-02T13:00:25.537Z,15.50
2023-01-02T13:01:25.672Z,13.60
2023-01-02T13:02:25.806Z,20.10
2023-01-02T13:03:25.554Z,17.60
2023-01-02T13:04:25.512Z,16.20
2023-01-02T13:05:25.501Z,14.60
2023-01-02T13:06:45.172Z,17.90
2023-01-02T13:07:26.549Z,13.50
2023-01-02T13:08:25.524Z,13.30
2023-01-02T13:09:25.488Z,14.00
2023-01-02T13:10:25.444Z,20.20
2023-01-02T13:11:25.436Z,13.60
2023-01-02T13:12:25.481Z,16.10
2023-01-02T13:13:25.418Z,16.10
2023-01-02T13:14:25.439Z,18.60
2023-01-02T13:15:25.417Z,12.60